createdAt,value
2018-05-10T00:01:04.386Z,49.20
2018-05-10T00:03:34.295Z,49.30
2018-05-10T00:06:03.187Z,49.10
2018-05-10T00:08:31.633Z,49.30
2018-05-10T00:11:00.457Z,49.50
2018-05-10T00:13:29.704Z,49.50
2018-05-10T00:15:58.024Z,49.50
2018-05-10T00:18:27.438Z,49.60
2018-05-10T00:20:55.755Z,49.70
2018-05-10T00:23:25.532Z,50.00
2018-05-10T00:25:54.078Z,50.00
2018-05-10T00:28:21.833Z,50.20
2018-05-10T00:30:50.153Z,50.20
2018-05-10T00:33:18.712Z,50.60
2018-05-10T00:35:47.839Z,50.70
2018-05-10T00:38:16.207Z,50.70
2018-05-10T00:40:44.036Z,51.30
2018-05-10T00:43:11.832Z,50.80
2018-05-10T00:45:39.520Z,50.70
2018-05-10T00:48:07.245Z,50.50
2018-05-10T00:50:35.701Z,50.20
2018-05-10T00:53:03.382Z,50.20
2018-05-10T00:55:31.175Z,50.20
2018-05-10T00:57:58.894Z,50.30
2018-05-10T01:00:26.615Z,50.40
2018-05-10T01:02:54.276Z,50.50
2018-05-10T01:05:22.803Z,50.30
2018-05-10T01:07:51.654Z,50.40
2018-05-10T01:10:19.353Z,50.20
2018-05-10T01:12:47.066Z,50.20
2018-05-10T01:15:15.682Z,50.20
2018-05-10T01:17:44.272Z,50.20
2018-05-10T01:20:13.864Z,50.50
2018-05-10T01:22:42.274Z,50.70
2018-05-10T01:25:10.212Z,50.70
2018-05-10T01:27:38.747Z,51.00
2018-05-10T01:30:15.102Z,50.90
2018-05-10T01:32:42.915Z,50.80
2018-05-10T01:35:23.075Z,50.70
2018-05-10T01:37:52.259Z,50.60
2018-05-10T01:40:20.841Z,50.90
2018-05-10T01:42:48.471Z,50.80
2018-05-10T01:45:16.242Z,51.60
2018-05-10T01:47:44.719Z,51.50
2018-05-10T01:50:14.274Z,51.50
2018-05-10T01:52:41.950Z,51.80
2018-05-10T01:55:09.580Z,52.00
2018-05-10T01:57:37.367Z,52.30
2018-05-10T02:00:04.989Z,52.50
2018-05-10T02:02:32.637Z,52.80
2018-05-10T02:05:00.274Z,53.00
2018-05-10T02:07:28.206Z,53.10
2018-05-10T02:09:56.169Z,53.60
2018-05-10T02:12:25.003Z,52.70
2018-05-10T02:14:53.486Z,52.70
2018-05-10T02:17:22.629Z,52.70
2018-05-10T02:19:51.997Z,52.60
2018-05-10T02:22:20.182Z,52.50
2018-05-10T02:24:48.916Z,52.40
2018-05-10T02:27:17.590Z,52.30
2018-05-10T02:29:45.419Z,52.20
2018-05-10T02:32:13.832Z,52.10
2018-05-10T02:34:42.275Z,52.10
2018-05-10T02:37:10.767Z,52.20
2018-05-10T02:39:39.279Z,52.10
2018-05-10T02:42:06.906Z,52.20
2018-05-10T02:44:34.561Z,52.10
2018-05-10T02:47:03.024Z,52.00
2018-05-10T02:49:31.405Z,51.90
2018-05-10T02:51:59.201Z,51.90
2018-05-10T02:54:26.989Z,52.00
2018-05-10T02:56:54.753Z,52.00
2018-05-10T02:59:22.477Z,52.00
2018-05-10T03:01:50.168Z,52.00
2018-05-10T03:04:17.928Z,52.10
2018-05-10T03:06:46.419Z,52.80
2018-05-10T03:09:14.148Z,52.30
2018-05-10T03:11:41.852Z,52.30
2018-05-10T03:14:09.518Z,53.10
2018-05-10T03:16:37.171Z,52.70
2018-05-10T03:19:04.858Z,52.80
2018-05-10T03:21:32.648Z,52.90
2018-05-10T03:24:01.581Z,53.00
2018-05-10T03:26:30.067Z,53.10
2018-05-10T03:28:57.811Z,53.10
2018-05-10T03:31:25.620Z,53.10
2018-05-10T03:33:53.296Z,53.10
2018-05-10T03:36:21.523Z,53.20
2018-05-10T03:38:49.266Z,53.20
2018-05-10T03:41:16.973Z,53.20
2018-05-10T03:43:44.602Z,53.50
2018-05-10T03:46:12.277Z,53.60
2018-05-10T03:48:40.598Z,53.50
2018-05-10T03:51:14.093Z,53.40
2018-05-10T03:53:42.533Z,53.60
2018-05-10T03:56:10.972Z,53.80
2018-05-10T03:58:39.443Z,53.80
2018-05-10T04:01:07.140Z,53.70
2018-05-10T04:03:59.223Z,53.80
2018-05-10T04:06:38.837Z,53.80
2018-05-10T04:09:18.305Z,54.00
2018-05-10T04:11:46.185Z,54.40
2018-05-10T04:14:13.908Z,54.60
2018-05-10T04:16:41.547Z,54.80
2018-05-10T04:19:09.319Z,54.80
2018-05-10T04:21:36.967Z,54.80
2018-05-10T04:24:04.627Z,54.80
2018-05-10T04:26:32.291Z,54.60
2018-05-10T04:28:59.905Z,54.90
2018-05-10T04:31:44.136Z,55.00
2018-05-10T04:34:11.865Z,55.20
2018-05-10T04:36:39.507Z,55.10
2018-05-10T04:39:07.143Z,55.20
2018-05-10T04:41:35.227Z,55.10
2018-05-10T04:44:02.857Z,55.00
2018-05-10T04:46:30.516Z,55.10
2018-05-10T04:48:58.740Z,55.20
2018-05-10T04:51:26.401Z,55.00
2018-05-10T04:53:54.106Z,54.90
2018-05-10T04:56:21.763Z,54.90
2018-05-10T04:58:49.453Z,54.70
2018-05-10T05:01:17.250Z,54.80
2018-05-10T05:03:44.879Z,54.50
2018-05-10T05:06:12.552Z,54.60
2018-05-10T05:08:40.171Z,54.40
2018-05-10T05:11:07.795Z,54.70
2018-05-10T05:13:35.455Z,54.70
2018-05-10T05:16:03.418Z,54.40
2018-05-10T05:18:31.030Z,54.40
2018-05-10T05:20:58.741Z,54.50
2018-05-10T05:23:27.120Z,54.50
2018-05-10T05:25:54.799Z,54.50
2018-05-10T05:28:22.486Z,54.50
2018-05-10T05:30:50.151Z,54.40
2018-05-10T05:33:18.105Z,54.50
2018-05-10T05:35:45.777Z,54.30
2018-05-10T05:38:14.166Z,54.20
2018-05-10T05:40:41.830Z,54.10
2018-05-10T05:43:09.468Z,54.00
2018-05-10T05:45:37.912Z,53.70
2018-05-10T05:48:05.552Z,53.70
2018-05-10T05:50:33.206Z,53.80
2018-05-10T05:53:01.642Z,53.80
2018-05-10T05:55:29.390Z,53.70
2018-05-10T05:57:57.041Z,53.60
2018-05-10T06:00:25.837Z,53.50
2018-05-10T06:02:54.306Z,53.30
2018-05-10T06:05:21.916Z,53.20
2018-05-10T06:07:49.566Z,53.10
2018-05-10T06:10:17.232Z,54.30
2018-05-10T06:12:45.659Z,54.70
2018-05-10T06:15:13.266Z,54.70
2018-05-10T06:17:40.962Z,55.00
2018-05-10T06:20:08.623Z,55.00
2018-05-10T06:22:36.282Z,55.00
2018-05-10T06:25:05.191Z,55.30
2018-05-10T06:27:32.779Z,54.80
2018-05-10T06:30:01.146Z,54.90
2018-05-10T06:32:28.792Z,54.20
2018-05-10T06:34:57.216Z,53.60
2018-05-10T06:37:24.874Z,53.60
2018-05-10T06:39:52.562Z,53.70
2018-05-10T06:42:20.984Z,53.80
2018-05-10T06:44:49.155Z,53.70
2018-05-10T06:47:17.605Z,53.60
2018-05-10T06:49:46.038Z,53.60
2018-05-10T06:52:13.761Z,53.20
2018-05-10T06:54:42.290Z,52.90
2018-05-10T06:57:12.030Z,52.90
2018-05-10T06:59:39.722Z,53.30
2018-05-10T07:02:07.589Z,53.70
2018-05-10T07:04:35.213Z,53.30
2018-05-10T07:07:03.763Z,52.90
2018-05-10T07:09:32.382Z,53.00
2018-05-10T07:11:59.951Z,53.00
2018-05-10T07:14:27.637Z,53.20
2018-05-10T07:16:55.258Z,53.20
2018-05-10T07:19:23.764Z,53.20
2018-05-10T07:21:51.413Z,52.60
2018-05-10T07:24:19.922Z,52.10
2018-05-10T07:26:49.853Z,52.10
2018-05-10T07:29:18.345Z,51.90
2018-05-10T07:31:46.068Z,51.80
2018-05-10T07:34:13.786Z,51.60
2018-05-10T07:36:41.419Z,51.80
2018-05-10T07:39:09.864Z,51.40
2018-05-10T07:41:38.231Z,51.40
2018-05-10T07:44:05.975Z,51.70
2018-05-10T07:46:34.600Z,51.70
2018-05-10T07:49:03.270Z,51.50
2018-05-10T07:51:30.904Z,51.30
2018-05-10T07:53:58.600Z,51.10
2018-05-10T07:56:26.400Z,51.80
2018-05-10T07:58:53.972Z,51.20
2018-05-10T08:01:21.582Z,51.60
2018-05-10T08:03:49.334Z,51.30
2018-05-10T08:06:16.999Z,51.00
2018-05-10T08:08:44.686Z,51.30
2018-05-10T08:11:12.393Z,50.50
2018-05-10T08:13:40.702Z,50.00
2018-05-10T08:16:08.357Z,49.80
2018-05-10T08:18:36.094Z,50.50
2018-05-10T08:23:03.585Z,50.70
2018-05-10T08:25:31.281Z,51.20
2018-05-10T08:27:58.927Z,51.80
2018-05-10T08:30:26.572Z,52.30
2018-05-10T08:32:54.996Z,52.80
2018-05-10T08:35:22.670Z,52.80
2018-05-10T08:37:50.668Z,52.70
2018-05-10T08:40:19.146Z,52.40
2018-05-10T08:42:46.827Z,52.00
2018-05-10T08:45:14.581Z,52.00
2018-05-10T08:47:42.990Z,51.60
2018-05-10T08:50:10.699Z,51.60
2018-05-10T08:52:38.554Z,51.50
2018-05-10T08:55:06.189Z,51.00
2018-05-10T08:57:33.797Z,51.10
2018-05-10T09:00:01.611Z,50.90
2018-05-10T09:02:30.047Z,50.60
2018-05-10T09:04:57.778Z,50.50
2018-05-10T09:07:25.394Z,50.10
2018-05-10T09:09:53.141Z,50.30
2018-05-10T09:12:20.804Z,49.70
2018-05-10T09:14:49.269Z,49.50
2018-05-10T09:17:16.975Z,49.50
2018-05-10T09:19:45.573Z,49.30
2018-05-10T09:22:14.902Z,48.90
2018-05-10T09:24:44.059Z,48.40
2018-05-10T09:27:18.218Z,48.40
2018-05-10T09:29:45.868Z,49.20
2018-05-10T09:32:15.194Z,48.10
2018-05-10T09:34:42.830Z,48.00
2018-05-10T09:37:10.663Z,48.10
2018-05-10T09:39:38.442Z,48.00
2018-05-10T09:42:07.234Z,47.90
2018-05-10T09:44:34.896Z,48.30
2018-05-10T09:47:03.444Z,48.40
2018-05-10T09:49:31.961Z,48.80
2018-05-10T09:51:59.623Z,48.70
2018-05-10T09:54:31.972Z,48.90
2018-05-10T09:57:02.734Z,47.90
2018-05-10T09:59:30.378Z,47.10
2018-05-10T10:01:59.634Z,46.90
2018-05-10T10:04:27.584Z,47.10
2018-05-10T10:06:55.304Z,47.00
2018-05-10T10:09:46.285Z,47.60
2018-05-10T10:12:14.010Z,47.30
2018-05-10T10:14:41.783Z,47.40
2018-05-10T10:17:09.582Z,47.20
2018-05-10T10:19:37.249Z,47.10
2018-05-10T10:22:04.906Z,46.80
2018-05-10T10:24:33.332Z,46.80
2018-05-10T10:27:01.009Z,47.10
2018-05-10T10:29:28.693Z,47.10
2018-05-10T10:31:56.333Z,47.30
2018-05-10T10:34:24.056Z,46.60
2018-05-10T10:36:52.446Z,47.10
2018-05-10T10:39:20.272Z,47.00
2018-05-10T10:41:48.041Z,47.10
2018-05-10T10:44:15.941Z,47.40
2018-05-10T10:46:45.914Z,47.20
2018-05-10T10:49:13.681Z,47.10
2018-05-10T10:51:41.424Z,47.00
2018-05-10T10:54:09.990Z,46.70
2018-05-10T10:56:37.602Z,46.60
2018-05-10T10:59:06.469Z,46.90
2018-05-10T11:01:34.330Z,46.30
2018-05-10T11:04:01.915Z,46.70
2018-05-10T11:06:29.586Z,46.70
2018-05-10T11:11:53.317Z,46.80
2018-05-10T11:14:21.079Z,46.20
2018-05-10T11:16:48.719Z,45.20
2018-05-10T11:19:16.351Z,45.40
2018-05-10T11:21:44.000Z,46.20
2018-05-10T11:24:11.626Z,46.00
2018-05-10T11:26:39.398Z,46.30
2018-05-10T11:29:07.093Z,46.70
2018-05-10T11:31:35.185Z,46.70
2018-05-10T11:34:02.906Z,46.50
2018-05-10T11:36:30.555Z,46.80
2018-05-10T11:38:58.255Z,46.70
2018-05-10T11:41:25.959Z,47.30
2018-05-10T11:43:53.632Z,47.40
2018-05-10T11:46:21.319Z,47.30
2018-05-10T11:48:49.273Z,47.90
2018-05-10T11:51:16.957Z,47.40
2018-05-10T11:53:44.750Z,47.60
2018-05-10T11:56:12.428Z,47.60
2018-05-10T11:58:40.131Z,47.40
2018-05-10T12:01:07.786Z,47.00
2018-05-10T12:03:35.396Z,46.70
2018-05-10T12:06:03.057Z,46.60
2018-05-10T12:08:30.678Z,46.70
2018-05-10T12:10:58.272Z,46.90
2018-05-10T12:13:25.973Z,47.10
2018-05-10T12:15:53.608Z,46.70
2018-05-10T12:18:22.048Z,46.40
2018-05-10T12:20:49.697Z,46.30
2018-05-10T12:23:18.222Z,46.70
2018-05-10T12:27:31.567Z,46.60
2018-05-10T12:29:59.350Z,47.20
2018-05-10T12:32:27.288Z,47.40
2018-05-10T12:34:55.093Z,47.70
2018-05-10T12:37:22.761Z,47.60
2018-05-10T12:39:51.254Z,47.40
2018-05-10T12:42:18.918Z,47.40
2018-05-10T12:44:46.590Z,46.50
2018-05-10T12:47:14.989Z,46.40
2018-05-10T12:49:43.497Z,46.80
2018-05-10T12:52:11.177Z,46.70
2018-05-10T12:54:40.562Z,46.40
2018-05-10T12:57:08.841Z,46.40
2018-05-10T12:59:36.516Z,46.50
2018-05-10T13:02:04.512Z,47.10
2018-05-10T13:04:32.989Z,47.20
2018-05-10T13:07:00.921Z,47.20
2018-05-10T13:09:28.803Z,47.30
2018-05-10T13:12:15.884Z,47.20
2018-05-10T13:14:45.239Z,48.20
2018-05-10T13:17:13.122Z,47.30
2018-05-10T13:19:41.174Z,48.00
2018-05-10T13:22:10.052Z,48.30
2018-05-10T13:24:40.092Z,48.50
2018-05-10T13:27:07.765Z,48.90
2018-05-10T13:29:35.580Z,49.10
2018-05-10T13:32:03.281Z,49.80
2018-05-10T13:34:31.304Z,50.30
2018-05-10T13:36:58.963Z,50.10
2018-05-10T13:39:27.198Z,50.00
2018-05-10T13:41:54.876Z,49.90
2018-05-10T13:44:22.767Z,50.10
2018-05-10T13:46:51.402Z,49.50
2018-05-10T13:49:19.252Z,49.50
2018-05-10T13:51:46.959Z,50.10
2018-05-10T13:54:16.467Z,50.80
2018-05-10T13:56:44.114Z,50.40
2018-05-10T13:59:12.726Z,50.30
2018-05-10T14:01:40.412Z,50.30
2018-05-10T14:04:08.083Z,50.60
2018-05-10T14:06:39.798Z,50.50
2018-05-10T14:09:08.658Z,49.90
2018-05-10T14:11:36.510Z,49.60
2018-05-10T14:14:04.143Z,49.90
2018-05-10T14:16:31.884Z,50.00
2018-05-10T14:18:59.418Z,50.10
2018-05-10T14:21:27.115Z,50.40
2018-05-10T14:23:54.734Z,50.90
2018-05-10T14:26:22.427Z,51.00
2018-05-10T14:28:50.065Z,50.80
2018-05-10T14:31:17.790Z,51.10
2018-05-10T14:33:46.646Z,51.90
2018-05-10T14:36:14.430Z,51.50
2018-05-10T14:38:43.751Z,51.20
2018-05-10T14:41:12.269Z,51.20
2018-05-10T14:43:40.962Z,50.90
2018-05-10T14:46:09.327Z,50.70
2018-05-10T14:48:37.648Z,51.20
2018-05-10T14:51:05.363Z,50.90
2018-05-10T14:53:34.437Z,50.70
2018-05-10T14:56:02.089Z,50.60
2018-05-10T14:58:29.782Z,50.40
2018-05-10T15:00:57.433Z,50.10
2018-05-10T15:03:26.060Z,48.60
2018-05-10T15:05:54.529Z,47.10
2018-05-10T15:08:22.191Z,47.10
2018-05-10T15:10:50.409Z,45.00
2018-05-10T15:13:18.973Z,44.40
2018-05-10T15:15:46.630Z,43.80
2018-05-10T15:18:14.356Z,43.70
2018-05-10T15:20:42.413Z,44.30
2018-05-10T15:23:11.035Z,44.10
2018-05-10T15:25:39.525Z,44.00
2018-05-10T15:28:08.010Z,44.10
2018-05-10T15:30:35.671Z,44.10
2018-05-10T15:33:04.268Z,44.10
2018-05-10T15:35:34.409Z,44.00
2018-05-10T15:38:02.123Z,43.80
2018-05-10T15:40:29.717Z,43.70
2018-05-10T15:42:57.407Z,43.20
2018-05-10T15:45:25.118Z,43.40
2018-05-10T15:47:54.064Z,42.90
2018-05-10T15:50:22.392Z,42.90
2018-05-10T15:52:51.775Z,42.30
2018-05-10T15:55:28.998Z,42.20
2018-05-10T15:57:56.946Z,41.80
2018-05-10T16:00:25.325Z,42.00
2018-05-10T16:02:53.918Z,42.10
2018-05-10T16:05:22.547Z,42.10
2018-05-10T16:07:50.960Z,42.20
2018-05-10T16:10:20.442Z,42.60
2018-05-10T16:12:50.305Z,43.10
2018-05-10T16:15:18.387Z,43.60
2018-05-10T16:17:47.847Z,43.40
2018-05-10T16:20:16.274Z,43.90
2018-05-10T16:22:44.092Z,44.20
2018-05-10T16:25:11.919Z,44.50
2018-05-10T16:27:40.557Z,44.70
2018-05-10T16:30:08.455Z,45.00
2018-05-10T16:32:37.085Z,45.40
2018-05-10T16:35:06.191Z,45.50
2018-05-10T16:37:34.110Z,46.10
2018-05-10T16:40:02.250Z,46.50
2018-05-10T16:42:30.852Z,47.00
2018-05-10T16:45:01.662Z,47.70
2018-05-10T16:47:32.031Z,49.30
2018-05-10T16:50:04.243Z,49.10
2018-05-10T16:52:32.876Z,50.00
2018-05-10T16:55:01.234Z,50.00
2018-05-10T16:57:29.143Z,50.20
2018-05-10T16:59:58.194Z,50.40
2018-05-10T17:02:25.804Z,50.60
2018-05-10T17:04:53.410Z,50.80
2018-05-10T17:07:21.193Z,50.60
2018-05-10T17:09:48.898Z,51.40
2018-05-10T17:12:16.656Z,51.10
2018-05-10T17:14:44.309Z,51.20
2018-05-10T17:17:12.090Z,51.20
2018-05-10T17:19:40.555Z,51.40
2018-05-10T17:22:08.221Z,51.30
2018-05-10T17:24:36.634Z,51.50
2018-05-10T17:27:05.119Z,51.40
2018-05-10T17:29:33.078Z,51.50
2018-05-10T17:32:01.014Z,51.60
2018-05-10T17:34:29.294Z,51.70
2018-05-10T17:36:57.506Z,51.80
2018-05-10T17:39:26.004Z,51.90
2018-05-10T17:41:54.784Z,51.90
2018-05-10T17:44:23.751Z,52.00
2018-05-10T17:46:51.975Z,52.10
2018-05-10T17:49:22.842Z,52.10
2018-05-10T17:51:51.050Z,52.10
2018-05-10T17:54:19.418Z,52.20
2018-05-10T17:56:47.954Z,52.40
2018-05-10T17:59:15.749Z,52.40
2018-05-10T18:01:45.985Z,52.40
2018-05-10T18:04:16.762Z,52.30
2018-05-10T18:06:47.286Z,52.50
2018-05-10T18:09:15.102Z,52.30
2018-05-10T18:11:43.650Z,52.30
2018-05-10T18:14:12.643Z,52.40
2018-05-10T18:16:42.467Z,52.40
2018-05-10T18:19:10.203Z,52.40
2018-05-10T18:21:41.290Z,52.50
2018-05-10T18:24:15.106Z,52.50
2018-05-10T18:26:43.513Z,52.50
2018-05-10T18:29:12.819Z,52.70
2018-05-10T18:31:42.243Z,52.80
2018-05-10T18:34:15.579Z,52.80
2018-05-10T18:36:44.025Z,52.80
2018-05-10T18:39:12.256Z,52.80
2018-05-10T18:41:40.402Z,53.00
2018-05-10T18:44:09.241Z,53.00
2018-05-10T18:46:38.593Z,53.00
2018-05-10T18:49:06.664Z,53.00
2018-05-10T18:51:34.961Z,53.20
2018-05-10T18:54:03.238Z,53.10
2018-05-10T18:56:31.626Z,53.10
2018-05-10T18:58:59.807Z,53.10
2018-05-10T19:01:28.289Z,53.10
2018-05-10T19:03:56.552Z,53.20
2018-05-10T19:06:24.845Z,53.20
2018-05-10T19:09:18.884Z,53.10
2018-05-10T19:11:47.327Z,53.10
2018-05-10T19:14:15.025Z,53.00
2018-05-10T19:16:43.187Z,53.10
2018-05-10T19:19:10.901Z,53.00
2018-05-10T19:21:38.527Z,53.00
2018-05-10T19:24:06.325Z,53.70
2018-05-10T19:26:34.111Z,53.10
2018-05-10T19:29:03.691Z,53.10
2018-05-10T19:31:31.453Z,53.00
2018-05-10T19:33:59.685Z,53.10
2018-05-10T19:36:27.930Z,53.10
2018-05-10T19:38:55.578Z,53.20
2018-05-10T19:41:25.351Z,53.20
2018-05-10T19:43:53.798Z,53.30
2018-05-10T19:46:21.750Z,53.10
2018-05-10T19:48:49.413Z,53.50
2018-05-10T19:51:18.037Z,53.60
2018-05-10T19:53:45.645Z,53.60
2018-05-10T19:56:14.197Z,53.70
2018-05-10T19:58:41.889Z,53.60
2018-05-10T20:01:09.602Z,53.70
2018-05-10T20:03:37.352Z,53.60
2018-05-10T20:06:05.042Z,53.70
2018-05-10T20:08:32.730Z,53.80
2018-05-10T20:11:00.820Z,53.80
2018-05-10T20:13:28.548Z,53.80
2018-05-10T20:15:56.251Z,53.80
2018-05-10T20:18:23.861Z,53.80
2018-05-10T20:20:51.508Z,53.90
2018-05-10T20:23:19.493Z,53.90
2018-05-10T20:25:47.151Z,54.00
2018-05-10T20:28:14.953Z,54.10
2018-05-10T20:30:43.032Z,54.00
2018-05-10T20:33:10.812Z,54.10
2018-05-10T20:35:39.279Z,54.40
2018-05-10T20:38:06.961Z,54.40
2018-05-10T20:40:34.775Z,54.40
2018-05-10T20:43:02.575Z,54.30
2018-05-10T20:45:30.236Z,54.40
2018-05-10T20:48:16.872Z,54.60
2018-05-10T20:50:45.402Z,54.90
2018-05-10T20:53:13.163Z,54.70
2018-05-10T20:55:40.865Z,54.90
2018-05-10T20:58:09.202Z,54.90
2018-05-10T21:00:36.875Z,55.10
2018-05-10T21:03:05.579Z,55.40
2018-05-10T21:05:33.243Z,55.20
2018-05-10T21:08:02.611Z,55.00
2018-05-10T21:10:30.368Z,54.90
2018-05-10T21:12:58.060Z,55.00
2018-05-10T21:15:27.175Z,55.30
2018-05-10T21:17:54.831Z,55.20
2018-05-10T21:20:23.309Z,55.00
2018-05-10T21:22:51.011Z,54.80
2018-05-10T21:25:18.972Z,54.70
2018-05-10T21:27:46.686Z,54.40
2018-05-10T21:30:15.241Z,54.30
2018-05-10T21:32:43.456Z,54.30
2018-05-10T21:35:12.297Z,54.60
2018-05-10T21:37:40.013Z,54.50
2018-05-10T21:40:08.477Z,54.70
2018-05-10T21:42:37.068Z,54.90
2018-05-10T21:45:04.768Z,54.50
2018-05-10T21:47:32.414Z,54.30
2018-05-10T21:50:04.803Z,54.00
2018-05-10T21:52:32.506Z,54.00
2018-05-10T21:55:00.195Z,54.00
2018-05-10T21:57:27.845Z,53.90
2018-05-10T21:59:55.554Z,53.80
2018-05-10T22:02:23.249Z,54.00
2018-05-10T22:04:51.846Z,54.20
2018-05-10T22:07:20.269Z,54.20
2018-05-10T22:09:48.005Z,54.20
2018-05-10T22:12:15.883Z,54.30
2018-05-10T22:14:43.587Z,54.50
2018-05-10T22:17:13.396Z,54.70
2018-05-10T22:19:41.141Z,54.80
2018-05-10T22:22:08.894Z,54.80
2018-05-10T22:24:37.012Z,54.90
2018-05-10T22:27:08.012Z,55.10
2018-05-10T22:29:36.265Z,55.10
2018-05-10T22:32:05.162Z,55.20
2018-05-10T22:34:46.144Z,55.40
2018-05-10T22:37:14.714Z,55.50
2018-05-10T22:39:42.512Z,55.40
2018-05-10T22:42:10.519Z,55.50
2018-05-10T22:44:38.544Z,55.50
2018-05-10T22:47:06.390Z,55.50
2018-05-10T22:49:34.140Z,55.40
2018-05-10T22:52:01.866Z,55.70
2018-05-10T22:54:29.503Z,55.70
2018-05-10T22:57:01.386Z,55.70
2018-05-10T22:59:33.735Z,55.70
2018-05-10T23:02:02.704Z,55.70
2018-05-10T23:04:34.859Z,56.30
2018-05-10T23:07:03.784Z,55.70
2018-05-10T23:09:32.057Z,55.80
2018-05-10T23:12:00.850Z,55.70
2018-05-10T23:14:31.612Z,55.50
2018-05-10T23:17:01.743Z,55.60
2018-05-10T23:19:29.418Z,55.50
2018-05-10T23:22:00.792Z,55.70
2018-05-10T23:24:29.870Z,55.90
2018-05-10T23:26:58.225Z,55.80
2018-05-10T23:29:25.932Z,55.70
2018-05-10T23:31:55.282Z,55.70
2018-05-10T23:34:23.580Z,55.50
2018-05-10T23:36:52.005Z,55.80
2018-05-10T23:39:19.706Z,55.70
2018-05-10T23:42:08.416Z,55.80
2018-05-10T23:44:37.527Z,56.10
2018-05-10T23:47:06.062Z,56.00
2018-05-10T23:49:36.125Z,55.80
2018-05-10T23:52:04.818Z,55.90
2018-05-10T23:54:32.597Z,56.10
2018-05-10T23:57:01.209Z,56.10
2018-05-10T23:59:28.995Z,56.00
